sensor_id;sensor_type;location;lat;lon;timestamp;pressure;altitude;pressure_sealevel;temperature;humidity
44765;BME280;30484;52.382;5.260;2023-04-30T00:01:32;102504.28;;;12.03;100.00
44765;BME280;30484;52.382;5.260;2023-04-30T00:04:03;102502.78;;;11.93;100.00
44765;BME280;30484;52.382;5.260;2023-04-30T00:06:32;102498.13;;;12.00;100.00
44765;BME280;30484;52.382;5.260;2023-04-30T00:09:03;102495.50;;;11.98;100.00
44765;BME280;30484;52.382;5.260;2023-04-30T00:11:32;102499.19;;;11.96;100.00
44765;BME280;30484;52.382;5.260;2023-04-30T00:14:02;102501.97;;;11.89;100.00
44765;BME280;30484;52.382;5.260;2023-04-30T00:16:31;102490.53;;;11.84;100.00
44765;BME280;30484;52.382;5.260;2023-04-30T00:18:59;102500.34;;;11.84;100.00
44765;BME280;30484;52.382;5.260;2023-04-30T00:21:28;102506.59;;;11.84;100.00
44765;BME280;30484;52.382;5.260;2023-04-30T00:23:56;102503.09;;;11.82;100.00
44765;BME280;30484;52.382;5.260;2023-04-30T00:26:26;102496.25;;;11.72;100.00
44765;BME280;30484;52.382;5.260;2023-04-30T00:28:55;102501.59;;;11.72;100.00
44765;BME280;30484;52.382;5.260;2023-04-30T00:31:26;102501.59;;;11.72;100.00
44765;BME280;30484;52.382;5.260;2023-04-30T00:33:54;102502.03;;;11.56;100.00
44765;BME280;30484;52.382;5.260;2023-04-30T00:36:23;102499.41;;;11.55;100.00
44765;BME280;30484;52.382;5.260;2023-04-30T00:38:53;102505.59;;;11.55;100.00
44765;BME280;30484;52.382;5.260;2023-04-30T00:41:22;102500.53;;;11.46;100.00
44765;BME280;30484;52.382;5.260;2023-04-30T00:43:50;102503.13;;;11.49;100.00
44765;BME280;30484;52.382;5.260;2023-04-30T00:46:20;102500.47;;;11.48;100.00
44765;BME280;30484;52.382;5.260;2023-04-30T00:48:50;102518.75;;;11.32;100.00
44765;BME280;30484;52.382;5.260;2023-04-30T00:51:19;102512.41;;;11.36;100.00
44765;BME280;30484;52.382;5.260;2023-04-30T00:53:48;102523.84;;;11.41;100.00
44765;BME280;30484;52.382;5.260;2023-04-30T00:56:17;102517.44;;;11.47;100.00
44765;BME280;30484;52.382;5.260;2023-04-30T00:58:47;102519.81;;;11.26;100.00
44765;BME280;30484;52.382;5.260;2023-04-30T01:01:17;102508.16;;;11.29;100.00
44765;BME280;30484;52.382;5.260;2023-04-30T01:03:46;102513.44;;;11.30;100.00
44765;BME280;30484;52.382;5.260;2023-04-30T01:06:15;102509.00;;;11.29;100.00
44765;BME280;30484;52.382;5.260;2023-04-30T01:08:44;102515.19;;;11.31;100.00
44765;BME280;30484;52.382;5.260;2023-04-30T01:11:25;102512.38;;;11.37;100.00
44765;BME280;30484;52.382;5.260;2023-04-30T01:14:03;102502.75;;;11.30;100.00
44765;BME280;30484;52.382;5.260;2023-04-30T01:16:39;102507.19;;;11.30;100.00
44765;BME280;30484;52.382;5.260;2023-04-30T01:19:28;102509.84;;;11.31;100.00
44765;BME280;30484;52.382;5.260;2023-04-30T01:22:03;102517.94;;;11.28;100.00
44765;BME280;30484;52.382;5.260;2023-04-30T01:24:52;102511.09;;;11.18;100.00
44765;BME280;30484;52.382;5.260;2023-04-30T01:30:08;102516.91;;;10.99;100.00
44765;BME280;30484;52.382;5.260;2023-04-30T01:32:37;102514.72;;;11.15;100.00
44765;BME280;30484;52.382;5.260;2023-04-30T01:35:06;102518.31;;;11.14;100.00
44765;BME280;30484;52.382;5.260;2023-04-30T01:37:41;102515.97;;;11.02;100.00
44765;BME280;30484;52.382;5.260;2023-04-30T01:40:28;102521.53;;;10.93;100.00
44765;BME280;30484;52.382;5.260;2023-04-30T01:43:08;102505.97;;;11.09;100.00
44765;BME280;30484;52.382;5.260;2023-04-30T01:45:55;102518.09;;;10.87;100.00
44765;BME280;30484;52.382;5.260;2023-04-30T01:48:32;102501.06;;;10.90;100.00
44765;BME280;30484;52.382;5.260;2023-04-30T01:51:14;102504.56;;;10.94;100.00
44765;BME280;30484;52.382;5.260;2023-04-30T01:53:44;102525.19;;;10.88;100.00
44765;BME280;30484;52.382;5.260;2023-04-30T01:56:23;102518.03;;;10.91;100.00
44765;BME280;30484;52.382;5.260;2023-04-30T01:58:54;102513.81;;;10.80;100.00
44765;BME280;30484;52.382;5.260;2023-04-30T02:01:29;102511.00;;;10.86;100.00
44765;BME280;30484;52.382;5.260;2023-04-30T02:03:58;102511.16;;;10.80;100.00
44765;BME280;30484;52.382;5.260;2023-04-30T02:06:27;102512.13;;;10.76;100.00
44765;BME280;30484;52.382;5.260;2023-04-30T02:08:57;102519.25;;;10.76;100.00
44765;BME280;30484;52.382;5.260;2023-04-30T02:11:29;102524.41;;;10.85;100.00
44765;BME280;30484;52.382;5.260;2023-04-30T02:13:59;102524.53;;;10.79;100.00
44765;BME280;30484;52.382;5.260;2023-04-30T02:16:29;102531.63;;;10.80;100.00
44765;BME280;30484;52.382;5.260;2023-04-30T02:18:57;102519.31;;;10.74;100.00
44765;BME280;30484;52.382;5.260;2023-04-30T02:21:26;102522.97;;;10.70;100.00
44765;BME280;30484;52.382;5.260;2023-04-30T02:23:56;102521.25;;;10.67;100.00
44765;BME280;30484;52.382;5.260;2023-04-30T02:26:24;102530.06;;;10.71;100.00
44765;BME280;30484;52.382;5.260;2023-04-30T02:28:52;102532.72;;;10.73;100.00
44765;BME280;30484;52.382;5.260;2023-04-30T02:31:20;102532.75;;;10.71;100.00
44765;BME280;30484;52.382;5.260;2023-04-30T02:33:50;102520.38;;;10.67;100.00
44765;BME280;30484;52.382;5.260;2023-04-30T02:36:18;102522.13;;;10.68;100.00
44765;BME280;30484;52.382;5.260;2023-04-30T02:38:46;102520.59;;;10.58;100.00
44765;BME280;30484;52.382;5.260;2023-04-30T02:41:14;102521.47;;;10.58;100.00
44765;BME280;30484;52.382;5.260;2023-04-30T02:43:43;102527.63;;;10.60;100.00
44765;BME280;30484;52.382;5.260;2023-04-30T02:46:11;102521.59;;;10.53;100.00
44765;BME280;30484;52.382;5.260;2023-04-30T02:48:39;102527.00;;;10.50;100.00
44765;BME280;30484;52.382;5.260;2023-04-30T02:51:09;102515.44;;;10.48;100.00
44765;BME280;30484;52.382;5.260;2023-04-30T02:53:37;102512.75;;;10.50;100.00
44765;BME280;30484;52.382;5.260;2023-04-30T02:56:06;102518.09;;;10.50;100.00
44765;BME280;30484;52.382;5.260;2023-04-30T02:58:35;102521.81;;;10.43;100.00
44765;BME280;30484;52.382;5.260;2023-04-30T03:01:03;102515.91;;;10.27;100.00
44765;BME280;30484;52.382;5.260;2023-04-30T03:03:31;102510.53;;;10.28;100.00
44765;BME280;30484;52.382;5.260;2023-04-30T03:06:01;102508.72;;;10.30;100.00
44765;BME280;30484;52.382;5.260;2023-04-30T03:08:30;102508.69;;;10.32;100.00
44765;BME280;30484;52.382;5.260;2023-04-30T03:10:59;102515.19;;;10.18;100.00
44765;BME280;30484;52.382;5.260;2023-04-30T03:13:28;102514.94;;;10.31;100.00
44765;BME280;30484;52.382;5.260;2023-04-30T03:15:56;102512.22;;;10.32;100.00
44765;BME280;30484;52.382;5.260;2023-04-30T03:18:27;102508.88;;;10.23;100.00
44765;BME280;30484;52.382;5.260;2023-04-30T03:20:58;102510.59;;;10.25;100.00
44765;BME280;30484;52.382;5.260;2023-04-30T03:23:27;102510.72;;;10.21;100.00
44765;BME280;30484;52.382;5.260;2023-04-30T03:25:57;102509.78;;;10.22;100.00
44765;BME280;30484;52.382;5.260;2023-04-30T03:28:25;102497.69;;;10.05;100.00
44765;BME280;30484;52.382;5.260;2023-04-30T03:30:53;102505.88;;;9.96;100.00
44765;BME280;30484;52.382;5.260;2023-04-30T03:33:22;102517.38;;;9.99;100.00
44765;BME280;30484;52.382;5.260;2023-04-30T03:35:50;102507.50;;;10.03;100.00
44765;BME280;30484;52.382;5.260;2023-04-30T03:38:19;102500.44;;;10.02;100.00
44765;BME280;30484;52.382;5.260;2023-04-30T03:40:47;102504.06;;;9.98;100.00
44765;BME280;30484;52.382;5.260;2023-04-30T03:43:17;102503.28;;;9.93;100.00
44765;BME280;30484;52.382;5.260;2023-04-30T03:45:45;102507.84;;;9.88;100.00
44765;BME280;30484;52.382;5.260;2023-04-30T03:48:13;102492.56;;;9.94;100.00
44765;BME280;30484;52.382;5.260;2023-04-30T03:50:42;102488.84;;;10.01;100.00
44765;BME280;30484;52.382;5.260;2023-04-30T03:53:11;102490.66;;;10.01;100.00
44765;BME280;30484;52.382;5.260;2023-04-30T03:55:39;102493.78;;;9.79;100.00
44765;BME280;30484;52.382;5.260;2023-04-30T03:58:08;102483.84;;;9.84;100.00
44765;BME280;30484;52.382;5.260;2023-04-30T04:00:39;102479.38;;;9.87;100.00
44765;BME280;30484;52.382;5.260;2023-04-30T04:03:08;102485.09;;;9.68;100.00
44765;BME280;30484;52.382;5.260;2023-04-30T04:05:36;102478.00;;;9.67;100.00
44765;BME280;30484;52.382;5.260;2023-04-30T04:08:05;102489.16;;;9.42;100.00
44765;BME280;30484;52.382;5.260;2023-04-30T04:10:33;102489.56;;;9.66;100.00
44765;BME280;30484;52.382;5.260;2023-04-30T04:13:03;102490.25;;;9.77;100.00
44765;BME280;30484;52.382;5.260;2023-04-30T04:15:32;102492.44;;;9.57;100.00
44765;BME280;30484;52.382;5.260;2023-04-30T04:18:02;102503.47;;;9.83;100.00
44765;BME280;30484;52.382;5.260;2023-04-30T04:20:32;102501.53;;;9.90;100.00
44765;BME280;30484;52.382;5.260;2023-04-30T04:23:01;102486.53;;;9.84;100.00
44765;BME280;30484;52.382;5.260;2023-04-30T04:25:29;102494.84;;;9.71;100.00
44765;BME280;30484;52.382;5.260;2023-04-30T04:27:59;102507.13;;;9.79;100.00
44765;BME280;30484;52.382;5.260;2023-04-30T04:30:30;102491.84;;;9.88;100.00
44765;BME280;30484;52.382;5.260;2023-04-30T04:32:58;102489.16;;;9.88;100.00
44765;BME280;30484;52.382;5.260;2023-04-30T04:35:28;102490.13;;;9.83;100.00
44765;BME280;30484;52.382;5.260;2023-04-30T04:37:57;102496.81;;;10.03;100.00
44765;BME280;30484;52.382;5.260;2023-04-30T04:40:26;102491.56;;;10.00;100.00
44765;BME280;30484;52.382;5.260;2023-04-30T04:42:57;102506.00;;;9.90;100.00
44765;BME280;30484;52.382;5.260;2023-04-30T04:45:25;102502.25;;;9.98;100.00
44765;BME280;30484;52.382;5.260;2023-04-30T04:47:54;102501.25;;;10.04;100.00
44765;BME280;30484;52.382;5.260;2023-04-30T04:50:23;102504.84;;;10.03;100.00
44765;BME280;30484;52.382;5.260;2023-04-30T04:52:52;102503.94;;;10.04;100.00
44765;BME280;30484;52.382;5.260;2023-04-30T04:55:21;102508.59;;;9.94;100.00
44765;BME280;30484;52.382;5.260;2023-04-30T04:57:49;102508.63;;;9.93;100.00
44765;BME280;30484;52.382;5.260;2023-04-30T05:00:17;102513.13;;;9.91;100.00
44765;BME280;30484;52.382;5.260;2023-04-30T05:02:48;102512.03;;;9.99;100.00
44765;BME280;30484;52.382;5.260;2023-04-30T05:05:16;102525.38;;;10.01;100.00
44765;BME280;30484;52.382;5.260;2023-04-30T05:07:45;102516.19;;;10.13;100.00
44765;BME280;30484;52.382;5.260;2023-04-30T05:10:14;102530.38;;;10.16;100.00
44765;BME280;30484;52.382;5.260;2023-04-30T05:12:43;102516.81;;;10.26;100.00
44765;BME280;30484;52.382;5.260;2023-04-30T05:15:11;102522.84;;;10.37;100.00
44765;BME280;30484;52.382;5.260;2023-04-30T05:17:39;102529.31;;;10.25;100.00
44765;BME280;30484;52.382;5.260;2023-04-30T05:20:10;102529.88;;;10.41;100.00
44765;BME280;30484;52.382;5.260;2023-04-30T05:22:39;102539.47;;;10.50;100.00
44765;BME280;30484;52.382;5.260;2023-04-30T05:25:08;102534.72;;;10.63;100.00
44765;BME280;30484;52.382;5.260;2023-04-30T05:27:38;102545.41;;;10.63;100.00
44765;BME280;30484;52.382;5.260;2023-04-30T05:30:08;102542.47;;;10.75;100.00
44765;BME280;30484;52.382;5.260;2023-04-30T05:32:36;102544.25;;;10.75;100.00
44765;BME280;30484;52.382;5.260;2023-04-30T05:35:06;102551.56;;;11.04;100.00
44765;BME280;30484;52.382;5.260;2023-04-30T05:37:35;102552.91;;;10.86;100.00
44765;BME280;30484;52.382;5.260;2023-04-30T05:40:12;102552.03;;;11.20;100.00
44765;BME280;30484;52.382;5.260;2023-04-30T05:42:42;102548.28;;;11.27;100.00
44765;BME280;30484;52.382;5.260;2023-04-30T05:45:11;102553.31;;;11.05;100.00
44765;BME280;30484;52.382;5.260;2023-04-30T05:47:41;102555.47;;;11.60;100.00
44765;BME280;30484;52.382;5.260;2023-04-30T05:50:10;102551.78;;;11.64;100.00
44765;BME280;30484;52.382;5.260;2023-04-30T05:52:40;102555.63;;;11.86;100.00
44765;BME280;30484;52.382;5.260;2023-04-30T05:55:11;102556.19;;;11.99;100.00
44765;BME280;30484;52.382;5.260;2023-04-30T05:57:44;102549.75;;;11.73;100.00
44765;BME280;30484;52.382;5.260;2023-04-30T06:00:13;102554.69;;;12.20;100.00
44765;BME280;30484;52.382;5.260;2023-04-30T06:02:41;102553.88;;;11.85;100.00
44765;BME280;30484;52.382;5.260;2023-04-30T06:05:13;102553.69;;;12.24;100.00
44765;BME280;30484;52.382;5.260;2023-04-30T06:07:42;102556.25;;;12.57;100.00
44765;BME280;30484;52.382;5.260;2023-04-30T06:10:13;102550.03;;;12.57;100.00
44765;BME280;30484;52.382;5.260;2023-04-30T06:12:43;102564.03;;;12.65;100.00
44765;BME280;30484;52.382;5.260;2023-04-30T06:15:15;102550.72;;;12.90;100.00
44765;BME280;30484;52.382;5.260;2023-04-30T06:17:46;102561.56;;;12.87;100.00
44765;BME280;30484;52.382;5.260;2023-04-30T06:20:20;102560.78;;;12.25;100.00
44765;BME280;30484;52.382;5.260;2023-04-30T06:22:48;102555.66;;;13.04;100.00
44765;BME280;30484;52.382;5.260;2023-04-30T06:25:19;102557.59;;;12.99;100.00
44765;BME280;30484;52.382;5.260;2023-04-30T06:27:49;102557.31;;;13.34;100.00
44765;BME280;30484;52.382;5.260;2023-04-30T06:30:20;102559.22;;;13.58;100.00
44765;BME280;30484;52.382;5.260;2023-04-30T06:32:48;102564.97;;;13.19;100.00
44765;BME280;30484;52.382;5.260;2023-04-30T06:35:16;102572.41;;;13.64;100.00
44765;BME280;30484;52.382;5.260;2023-04-30T06:37:47;102562.81;;;13.30;100.00
44765;BME280;30484;52.382;5.260;2023-04-30T06:40:18;102568.44;;;13.23;100.00
44765;BME280;30484;52.382;5.260;2023-04-30T06:42:51;102565.41;;;13.07;100.00
44765;BME280;30484;52.382;5.260;2023-04-30T06:45:20;102573.28;;;13.65;100.00
44765;BME280;30484;52.382;5.260;2023-04-30T06:47:49;102558.97;;;13.39;100.00
44765;BME280;30484;52.382;5.260;2023-04-30T06:50:19;102568.81;;;12.84;100.00
44765;BME280;30484;52.382;5.260;2023-04-30T06:52:48;102575.25;;;13.06;100.00
44765;BME280;30484;52.382;5.260;2023-04-30T06:55:16;102570.94;;;13.56;100.00
44765;BME280;30484;52.382;5.260;2023-04-30T06:57:44;102578.38;;;13.48;100.00
44765;BME280;30484;52.382;5.260;2023-04-30T07:00:14;102574.44;;;13.83;100.00
44765;BME280;30484;52.382;5.260;2023-04-30T07:02:44;102567.50;;;14.01;100.00
44765;BME280;30484;52.382;5.260;2023-04-30T07:05:14;102570.84;;;14.31;100.00
44765;BME280;30484;52.382;5.260;2023-04-30T07:07:42;102575.72;;;13.73;100.00
44765;BME280;30484;52.382;5.260;2023-04-30T07:10:10;102573.81;;;14.47;100.00
44765;BME280;30484;52.382;5.260;2023-04-30T07:12:39;102574.19;;;14.38;100.00
44765;BME280;30484;52.382;5.260;2023-04-30T07:15:08;102567.00;;;14.62;100.00
44765;BME280;30484;52.382;5.260;2023-04-30T07:17:38;102556.50;;;14.55;100.00
44765;BME280;30484;52.382;5.260;2023-04-30T07:20:09;102566.41;;;14.30;100.00
44765;BME280;30484;52.382;5.260;2023-04-30T07:22:37;102575.25;;;14.80;100.00
44765;BME280;30484;52.382;5.260;2023-04-30T07:25:07;102574.81;;;14.45;100.00
44765;BME280;30484;52.382;5.260;2023-04-30T07:27:35;102555.19;;;14.43;100.00
44765;BME280;30484;52.382;5.260;2023-04-30T07:30:05;102567.72;;;15.10;100.00
44765;BME280;30484;52.382;5.260;2023-04-30T07:32:43;102572.63;;;15.00;100.00
44765;BME280;30484;52.382;5.260;2023-04-30T07:35:11;102564.25;;;14.86;100.00
44765;BME280;30484;52.382;5.260;2023-04-30T07:37:40;102564.66;;;14.97;100.00
44765;BME280;30484;52.382;5.260;2023-04-30T07:40:11;102569.13;;;14.98;100.00
44765;BME280;30484;52.382;5.260;2023-04-30T07:42:54;102577.31;;;14.73;100.00
44765;BME280;30484;52.382;5.260;2023-04-30T07:45:22;102573.56;;;14.99;100.00
44765;BME280;30484;52.382;5.260;2023-04-30T07:47:52;102571.47;;;15.28;100.00
44765;BME280;30484;52.382;5.260;2023-04-30T07:50:21;102572.72;;;15.62;100.00
44765;BME280;30484;52.382;5.260;2023-04-30T07:52:49;102574.63;;;15.81;100.00
44765;BME280;30484;52.382;5.260;2023-04-30T07:55:17;102570.16;;;15.59;100.00
44765;BME280;30484;52.382;5.260;2023-04-30T07:57:46;102565.16;;;15.91;100.00
44765;BME280;30484;52.382;5.260;2023-04-30T08:00:14;102566.22;;;15.25;100.00
44765;BME280;30484;52.382;5.260;2023-04-30T08:02:43;102566.28;;;16.06;100.00
44765;BME280;30484;52.382;5.260;2023-04-30T08:05:18;102557.41;;;16.61;100.00
44765;BME280;30484;52.382;5.260;2023-04-30T08:07:47;102561.41;;;16.52;100.00
44765;BME280;30484;52.382;5.260;2023-04-30T08:10:15;102568.63;;;16.33;100.00
44765;BME280;30484;52.382;5.260;2023-04-30T08:12:43;102570.94;;;16.79;100.00
44765;BME280;30484;52.382;5.260;2023-04-30T08:15:13;102572.66;;;16.62;100.00
44765;BME280;30484;52.382;5.260;2023-04-30T08:17:45;102562.09;;;17.13;100.00
44765;BME280;30484;52.382;5.260;2023-04-30T08:20:14;102578.53;;;17.26;100.00
44765;BME280;30484;52.382;5.260;2023-04-30T08:22:43;102566.31;;;17.19;100.00
44765;BME280;30484;52.382;5.260;2023-04-30T08:25:11;102568.69;;;16.88;100.00
44765;BME280;30484;52.382;5.260;2023-04-30T08:27:40;102563.81;;;17.14;100.00
44765;BME280;30484;52.382;5.260;2023-04-30T08:30:10;102574.25;;;17.22;100.00
44765;BME280;30484;52.382;5.260;2023-04-30T08:32:38;102572.06;;;16.74;100.00
44765;BME280;30484;52.382;5.260;2023-04-30T08:35:08;102574.25;;;17.74;100.00
44765;BME280;30484;52.382;5.260;2023-04-30T08:37:38;102567.78;;;18.44;100.00
44765;BME280;30484;52.382;5.260;2023-04-30T08:40:10;102572.78;;;18.52;100.00
44765;BME280;30484;52.382;5.260;2023-04-30T08:42:49;102558.41;;;17.14;100.00
44765;BME280;30484;52.382;5.260;2023-04-30T08:45:18;102571.78;;;18.21;100.00
44765;BME280;30484;52.382;5.260;2023-04-30T08:47:50;102556.31;;;17.89;100.00
44765;BME280;30484;52.382;5.260;2023-04-30T08:50:24;102565.00;;;18.45;100.00
44765;BME280;30484;52.382;5.260;2023-04-30T08:52:56;102569.88;;;18.39;100.00
44765;BME280;30484;52.382;5.260;2023-04-30T08:55:26;102567.19;;;18.05;100.00
44765;BME280;30484;52.382;5.260;2023-04-30T08:57:55;102566.03;;;18.75;100.00
44765;BME280;30484;52.382;5.260;2023-04-30T09:00:24;102571.03;;;17.84;100.00
44765;BME280;30484;52.382;5.260;2023-04-30T09:02:53;102566.47;;;18.35;100.00
44765;BME280;30484;52.382;5.260;2023-04-30T09:05:22;102569.59;;;17.94;100.00
44765;BME280;30484;52.382;5.260;2023-04-30T09:07:52;102565.28;;;18.07;100.00
44765;BME280;30484;52.382;5.260;2023-04-30T09:10:32;102564.75;;;18.34;100.00
44765;BME280;30484;52.382;5.260;2023-04-30T09:13:03;102559.50;;;18.63;100.00
44765;BME280;30484;52.382;5.260;2023-04-30T09:15:33;102555.84;;;18.64;100.00
44765;BME280;30484;52.382;5.260;2023-04-30T09:18:10;102561.00;;;18.53;100.00
44765;BME280;30484;52.382;5.260;2023-04-30T09:20:54;102556.47;;;17.86;100.00
44765;BME280;30484;52.382;5.260;2023-04-30T09:23:24;102559.91;;;18.55;100.00
44765;BME280;30484;52.382;5.260;2023-04-30T09:25:52;102556.72;;;17.99;100.00
44765;BME280;30484;52.382;5.260;2023-04-30T09:28:22;102553.44;;;18.10;100.00
44765;BME280;30484;52.382;5.260;2023-04-30T09:30:54;102546.28;;;18.25;100.00
44765;BME280;30484;52.382;5.260;2023-04-30T09:33:22;102550.00;;;17.73;100.00
44765;BME280;30484;52.382;5.260;2023-04-30T09:35:50;102544.19;;;18.94;100.00
44765;BME280;30484;52.382;5.260;2023-04-30T09:38:28;102542.13;;;18.67;100.00
44765;BME280;30484;52.382;5.260;2023-04-30T09:40:58;102540.38;;;18.66;100.00
44765;BME280;30484;52.382;5.260;2023-04-30T09:43:27;102533.06;;;19.14;100.00
44765;BME280;30484;52.382;5.260;2023-04-30T09:45:57;102534.84;;;18.68;100.00
44765;BME280;30484;52.382;5.260;2023-04-30T09:48:26;102530.75;;;18.60;100.00
44765;BME280;30484;52.382;5.260;2023-04-30T09:50:55;102537.25;;;19.79;100.00
44765;BME280;30484;52.382;5.260;2023-04-30T09:53:25;102529.69;;;19.56;100.00
44765;BME280;30484;52.382;5.260;2023-04-30T09:55:57;102521.19;;;19.91;100.00
44765;BME280;30484;52.382;5.260;2023-04-30T09:58:31;102516.94;;;20.01;100.00
44765;BME280;30484;52.382;5.260;2023-04-30T10:01:04;102516.53;;;19.64;100.00
44765;BME280;30484;52.382;5.260;2023-04-30T10:03:34;102516.06;;;18.80;100.00
44765;BME280;30484;52.382;5.260;2023-04-30T10:06:03;102508.03;;;19.85;100.00
44765;BME280;30484;52.382;5.260;2023-04-30T10:08:38;102508.97;;;20.27;100.00
44765;BME280;30484;52.382;5.260;2023-04-30T10:11:09;102513.03;;;19.76;100.00
44765;BME280;30484;52.382;5.260;2023-04-30T10:13:48;102512.97;;;20.07;100.00
44765;BME280;30484;52.382;5.260;2023-04-30T10:16:26;102505.19;;;20.15;100.00
44765;BME280;30484;52.382;5.260;2023-04-30T10:19:01;102509.03;;;19.53;100.00
44765;BME280;30484;52.382;5.260;2023-04-30T10:21:30;102505.75;;;20.34;100.00
44765;BME280;30484;52.382;5.260;2023-04-30T10:24:05;102508.00;;;19.56;100.00
44765;BME280;30484;52.382;5.260;2023-04-30T10:26:33;102500.41;;;19.61;100.00
44765;BME280;30484;52.382;5.260;2023-04-30T10:29:01;102503.66;;;19.96;100.00
44765;BME280;30484;52.382;5.260;2023-04-30T10:31:31;102501.69;;;20.27;100.00
44765;BME280;30484;52.382;5.260;2023-04-30T10:34:08;102493.00;;;20.08;100.00
44765;BME280;30484;52.382;5.260;2023-04-30T10:36:44;102499.06;;;20.67;100.00
44765;BME280;30484;52.382;5.260;2023-04-30T10:39:18;102498.78;;;21.12;100.00
44765;BME280;30484;52.382;5.260;2023-04-30T10:41:48;102493.34;;;20.58;100.00
44765;BME280;30484;52.382;5.260;2023-04-30T10:44:21;102497.06;;;20.84;100.00
44765;BME280;30484;52.382;5.260;2023-04-30T10:46:58;102496.94;;;21.26;100.00
44765;BME280;30484;52.382;5.260;2023-04-30T10:49:27;102495.44;;;21.34;100.00
44765;BME280;30484;52.382;5.260;2023-04-30T10:51:59;102487.75;;;20.46;100.00
44765;BME280;30484;52.382;5.260;2023-04-30T10:54:32;102486.03;;;21.00;100.00
44765;BME280;30484;52.382;5.260;2023-04-30T10:57:10;102490.19;;;21.18;100.00
44765;BME280;30484;52.382;5.260;2023-04-30T10:59:44;102474.94;;;21.03;100.00
44765;BME280;30484;52.382;5.260;2023-04-30T11:02:15;102460.22;;;21.59;100.00
44765;BME280;30484;52.382;5.260;2023-04-30T11:05:15;102470.69;;;21.65;100.00
44765;BME280;30484;52.382;5.260;2023-04-30T11:07:48;102464.72;;;22.10;100.00
44765;BME280;30484;52.382;5.260;2023-04-30T11:10:21;102466.00;;;22.17;100.00
44765;BME280;30484;52.382;5.260;2023-04-30T11:12:52;102462.97;;;22.09;100.00
44765;BME280;30484;52.382;5.260;2023-04-30T11:15:25;102466.66;;;22.20;100.00
44765;BME280;30484;52.382;5.260;2023-04-30T11:17:57;102465.19;;;22.40;100.00
44765;BME280;30484;52.382;5.260;2023-04-30T11:20:26;102462.59;;;22.63;100.00
44765;BME280;30484;52.382;5.260;2023-04-30T11:23:12;102459.50;;;23.03;100.00
44765;BME280;30484;52.382;5.260;2023-04-30T11:25:53;102447.63;;;22.45;100.00
44765;BME280;30484;52.382;5.260;2023-04-30T11:28:24;102445.03;;;23.14;100.00
44765;BME280;30484;52.382;5.260;2023-04-30T11:30:53;102439.63;;;23.48;100.00
44765;BME280;30484;52.382;5.260;2023-04-30T11:33:24;102437.28;;;23.32;100.00
44765;BME280;30484;52.382;5.260;2023-04-30T11:35:54;102429.72;;;22.89;100.00
44765;BME280;30484;52.382;5.260;2023-04-30T11:38:26;102422.03;;;23.41;100.00
44765;BME280;30484;52.382;5.260;2023-04-30T11:40:56;102426.09;;;23.13;100.00
44765;BME280;30484;52.382;5.260;2023-04-30T11:43:27;102416.25;;;23.10;100.00
44765;BME280;30484;52.382;5.260;2023-04-30T11:46:09;102411.22;;;22.81;100.00
44765;BME280;30484;52.382;5.260;2023-04-30T11:48:39;102418.91;;;23.34;100.00
44765;BME280;30484;52.382;5.260;2023-04-30T11:51:15;102419.03;;;23.33;100.00
44765;BME280;30484;52.382;5.260;2023-04-30T11:53:46;102411.81;;;22.62;100.00
44765;BME280;30484;52.382;5.260;2023-04-30T11:56:22;102417.47;;;22.95;100.00
44765;BME280;30484;52.382;5.260;2023-04-30T11:58:52;102411.16;;;22.58;100.00
44765;BME280;30484;52.382;5.260;2023-04-30T12:01:25;102407.22;;;23.09;100.00
44765;BME280;30484;52.382;5.260;2023-04-30T12:03:55;102391.34;;;23.03;100.00
44765;BME280;30484;52.382;5.260;2023-04-30T12:06:25;102395.72;;;23.85;100.00
44765;BME280;30484;52.382;5.260;2023-04-30T12:08:55;102404.22;;;24.26;100.00
44765;BME280;30484;52.382;5.260;2023-04-30T12:11:27;102391.03;;;23.87;100.00
44765;BME280;30484;52.382;5.260;2023-04-30T12:14:00;102389.31;;;24.62;100.00
44765;BME280;30484;52.382;5.260;2023-04-30T12:16:39;102404.31;;;25.10;100.00
44765;BME280;30484;52.382;5.260;2023-04-30T12:19:07;102388.50;;;24.07;100.00
44765;BME280;30484;52.382;5.260;2023-04-30T12:21:36;102388.25;;;24.75;100.00
44765;BME280;30484;52.382;5.260;2023-04-30T12:24:05;102382.88;;;24.52;100.00
44765;BME280;30484;52.382;5.260;2023-04-30T12:26:36;102375.66;;;23.64;100.00
44765;BME280;30484;52.382;5.260;2023-04-30T12:29:08;102373.94;;;25.13;100.00
44765;BME280;30484;52.382;5.260;2023-04-30T12:31:40;102384.75;;;25.67;100.00
44765;BME280;30484;52.382;5.260;2023-04-30T12:34:12;102381.72;;;24.34;100.00
44765;BME280;30484;52.382;5.260;2023-04-30T12:36:41;102371.53;;;25.41;95.70
44765;BME280;30484;52.382;5.260;2023-04-30T12:39:11;102371.09;;;24.52;99.44
44765;BME280;30484;52.382;5.260;2023-04-30T12:41:43;102368.06;;;25.39;96.34
44765;BME280;30484;52.382;5.260;2023-04-30T12:44:18;102370.22;;;25.86;98.34
44765;BME280;30484;52.382;5.260;2023-04-30T12:46:46;102370.09;;;25.16;93.21
44765;BME280;30484;52.382;5.260;2023-04-30T12:49:23;102360.06;;;26.27;92.42
44765;BME280;30484;52.382;5.260;2023-04-30T12:51:57;102356.25;;;25.89;86.92
44765;BME280;30484;52.382;5.260;2023-04-30T12:54:27;102354.09;;;25.32;88.25
44765;BME280;30484;52.382;5.260;2023-04-30T12:56:59;102352.97;;;25.45;86.54
44765;BME280;30484;52.382;5.260;2023-04-30T12:59:29;102358.88;;;25.19;86.03
44765;BME280;30484;52.382;5.260;2023-04-30T13:02:08;102356.31;;;26.28;87.72